Queen Of Burnaby — VCVV — position and weather

sailwx.info

Track history (hours):
 
Tides and Currents Weather Stations Pressure Air Temp Water Temp Dewpoint Dewpoint Depression Visibility Wind Speed Wind Dir Waves Ship Positions

Queen Of Burnaby

Last reported at 2015-Sep-05 15:34 UTC. Time now 2015-Sep-05 16:24 UTC.
Position N 49°48' W 124°40'.

Length 130 m; draft 4 m.

MMSI: 316001246.

Date/timePositionNaut miles runAvg speedWind from/ knotsBaromVisibWave heightAir tempDewpointWater temp
2015-Sep-05 15:34N 49°48' W 124°40'5 4.9
2015-Sep-05 14:33N 49°50' W 124°33'1413.5
2015-Sep-05 13:32N 49°45' W 124°53'2 1.8
2015-Sep-05 12:31N 49°44' W 124°55'0 0.0
2015-Sep-05 11:31N 49°44' W 124°55'0 0.0
2015-Sep-05 05:31N 49°44' W 124°55'7 7.8
2015-Sep-05 04:33N 49°47' W 124°45'9 7.9
2015-Sep-05 03:28N 49°50' W 124°32'1314.0
2015-Sep-05 02:33N 49°46' W 124°51'3 2.7
2015-Sep-05 01:33N 49°45' W 124°55'1212.2
2015-Sep-05 00:33N 49°49' W 124°37'3 3.1
2015-Sep-04 23:30N 49°50' W 124°32'1313.6
2015-Sep-04 22:33N 49°46' W 124°51'3 1.4
2015-Sep-04 20:15N 49°44' W 124°55'1013.0
2015-Sep-04 19:31N 49°48' W 124°42'6 5.5
2015-Sep-04 18:21N 49°50' W 124°33'1113.9
2015-Sep-04 17:33N 49°46' W 124°49'5 4.1
2015-Sep-04 16:26N 49°44' W 124°55'1112.9
2015-Sep-04 15:33N 49°48' W 124°39'3 3.1
2015-Sep-04 14:34N 49°50' W 124°35'1312.8
2015-Sep-04 13:34N 49°45' W 124°53'2 1.5
2015-Sep-04 12:26N 49°44' W 124°55'0 0.0
2015-Sep-04 10:17N 49°44' W 124°55'0 0.0
2015-Sep-04 09:05N 49°44' W 124°55'0 0.0
2015-Sep-04 08:29N 49°44' W 124°55'0 0.0
2015-Sep-04 05:23N 49°44' W 124°55'7 8.1
2015-Sep-04 04:33N 49°47' W 124°46'9 8.3
2015-Sep-04 03:27N 49°50' W 124°32'1214.1
2015-Sep-04 02:33N 49°46' W 124°50'2 2.2
2015-Sep-04 01:31N 49°45' W 124°54'1111.8
2015-Sep-04 00:34N 49°49' W 124°37'3 3.2
2015-Sep-03 23:33N 49°50' W 124°33'1413.8
2015-Sep-03 22:33N 49°45' W 124°52'2 1.0
2015-Sep-03 20:22N 49°44' W 124°55'7 8.7
2015-Sep-03 19:32N 49°47' W 124°45'9 7.4
2015-Sep-03 18:19N 49°50' W 124°32'1012.7
2015-Sep-03 17:33N 49°47' W 124°46'7 6.6
2015-Sep-03 16:33N 49°44' W 124°55'1211.9
2015-Sep-03 15:33N 49°49' W 124°38'3 3.1
2015-Sep-03 14:33N 49°50' W 124°34'1413.6
2015-Sep-03 13:32N 49°45' W 124°54'1 0.3
2015-Sep-03 09:32N 49°44' W 124°55'0 0.0
2015-Sep-03 08:14N 49°44' W 124°55'0 0.0
2015-Sep-03 07:29N 49°44' W 124°55'0 0.0
2015-Sep-03 06:23N 49°44' W 124°55'0 0.0
2015-Sep-03 05:14N 49°44' W 124°55'6 8.1
2015-Sep-03 04:33N 49°47' W 124°47'10 9.3
2015-Sep-03 03:26N 49°50' W 124°32'1214.0
2015-Sep-03 02:33N 49°46' W 124°50'3 3.5
2015-Sep-03 01:33N 49°44' W 124°55'1312.7
2015-Sep-03 00:33N 49°49' W 124°37'3 3.2
2015-Sep-02 23:33N 49°50' W 124°33'1313.0
2015-Sep-02 22:33N 49°45' W 124°51'0 0.0
2015-Sep-02 17:15N 49°46' W 124°52'3 3.8
2015-Sep-02 16:33N 49°44' W 124°55'1111.0
2015-Sep-02 15:33N 49°48' W 124°40'4 3.7
2015-Sep-02 14:33N 49°50' W 124°34'1413.8
2015-Sep-02 13:31N 49°45' W 124°55'1 0.5
2015-Sep-02 12:32N 49°44' W 124°55'0 0.0
2015-Sep-02 11:32N 49°44' W 124°55'0 0.0
2015-Sep-02 10:32N 49°44' W 124°55'0 0.0
2015-Sep-02 09:26N 49°44' W 124°55'0 0.0
2015-Sep-02 08:26N 49°44' W 124°55'0 0.0
2015-Sep-02 07:26N 49°44' W 124°55'0 0.0
2015-Sep-02 06:23N 49°44' W 124°55'0 0.0
2015-Sep-02 05:32N 49°44' W 124°55'6 6.1
2015-Sep-02 04:32N 49°48' W 124°48'10 9.1
2015-Sep-02 03:25N 49°50' W 124°32'1214.1
2015-Sep-02 02:33N 49°46' W 124°50'4 3.8
2015-Sep-02 01:33N 49°44' W 124°55'1212.3
2015-Sep-02 00:34N 49°49' W 124°38'4 3.5
2015-Sep-01 23:33N 49°50' W 124°33'1313.0
2015-Sep-01 22:33N 49°46' W 124°52'3 2.6
2015-Sep-01 21:29N 49°44' W 124°55'0 0.0
2015-Sep-01 20:32N 49°44' W 124°55'10 9.3
2015-Sep-01 19:30N 49°48' W 124°42'7 6.0
2015-Sep-01 18:23N 49°50' W 124°32'1011.8
2015-Sep-01 17:33N 49°47' W 124°46'6 5.9
2015-Sep-01 16:27N 49°44' W 124°55'1213.6
2015-Sep-01 15:33N 49°49' W 124°38'2 2.0
2015-Sep-01 14:34N 49°50' W 124°35'1413.8
2015-Sep-01 13:34N 49°45' W 124°55'0 0.3
2015-Sep-01 12:31N 49°44' W 124°55'0 0.0
2015-Sep-01 10:28N 49°44' W 124°55'0 0.0
2015-Sep-01 09:04N 49°44' W 124°55'0 0.0
2015-Sep-01 08:22N 49°44' W 124°55'0 0.0
2015-Sep-01 07:22N 49°44' W 124°55'0 0.0
2015-Sep-01 06:25N 49°44' W 124°55'0 0.0
2015-Sep-01 05:16N 49°44' W 124°55'6 8.0
2015-Sep-01 04:33N 49°47' W 124°48'1110.5
2015-Sep-01 03:33N 49°50' W 124°32'1212.5
2015-Sep-01 02:33N 49°46' W 124°50'4 3.5
2015-Sep-01 01:28N 49°44' W 124°55'1212.9
2015-Sep-01 00:33N 49°49' W 124°38'3 3.4
2015-Aug-31 23:33N 49°50' W 124°34'1313.4
2015-Aug-31 22:33N 49°45' W 124°53'2 0.8
2015-Aug-31 20:25N 49°44' W 124°55'8 8.7
2015-Aug-31 19:32N 49°47' W 124°44'9 8.3
2015-Aug-31 18:30N 49°50' W 124°32'1010.8
2015-Aug-31 17:33N 49°46' W 124°47'6 6.1
2015-Aug-31 16:34N 49°44' W 124°55'1110.4
2015-Aug-31 15:33N 49°48' W 124°40'5 5.4
2015-Aug-31 14:33N 49°50' W 124°33'1413.8
2015-Aug-31 13:33N 49°45' W 124°53'2 1.8
2015-Aug-31 12:28N 49°44' W 124°55'0 0.0
2015-Aug-31 10:22N 49°44' W 124°55'0 0.0
2015-Aug-31 07:10N 49°44' W 124°55'0 0.0
2015-Aug-31 06:28N 49°44' W 124°55'0 0.0
2015-Aug-31 05:22N 49°44' W 124°55'6 7.7
2015-Aug-31 04:32N 49°48' W 124°47'1010.1
2015-Aug-31 03:32N 49°50' W 124°32'1312.8
2015-Aug-31 02:33N 49°46' W 124°50'4 3.5
2015-Aug-31 01:33N 49°44' W 124°55'1212.2
2015-Aug-31 00:33N 49°49' W 124°38'4 3.6
2015-Aug-30 23:31N 49°50' W 124°33'1313.3
2015-Aug-30 22:31N 49°45' W 124°52'2 1.1
2015-Aug-30 20:15N 49°44' W 124°55'810.8
2015-Aug-30 19:32N 49°47' W 124°44'8 6.5
2015-Aug-30 18:17N 49°50' W 124°33'1013.6
2015-Aug-30 17:33N 49°47' W 124°47'6 5.9
2015-Aug-30 16:32N 49°44' W 124°55'1210.7
2015-Aug-30 15:26N 49°49' W 124°38'4 4.5
2015-Aug-30 14:31N 49°50' W 124°33'1414.3
2015-Aug-30 13:33N 49°45' W 124°53'3 0.3
2015-Aug-30 04:34N 49°46' W 124°48'11 8.4
2015-Aug-30 03:13N 49°50' W 124°32'912.8
2015-Aug-30 02:33N 49°47' W 124°45'8 3.5
2015-Aug-30 00:26N 49°44' W 124°55'0 0.0
2015-Aug-29 23:32N 49°44' W 124°55'0 0.0
2015-Aug-29 20:26N 49°44' W 124°55'8 9.4
2015-Aug-29 19:32N 49°47' W 124°43'7 5.8
2015-Aug-29 18:17N 49°50' W 124°33'1013.3
2015-Aug-29 17:31N 49°46' W 124°48'5 5.5
2015-Aug-29 16:33N 49°44' W 124°55'1110.3
2015-Aug-29 15:31N 49°48' W 124°40'5 5.1
2015-Aug-29 14:33N 49°50' W 124°33'1413.9
2015-Aug-29 13:33N 49°45' W 124°53'2 1.2
2015-Aug-29 12:08N 49°44' W 124°55'0 0.0
2015-Aug-29 11:11N 49°44' W 124°55'0 0.0
2015-Aug-29 10:32N 49°44' W 124°55'0 0.0
2015-Aug-29 09:23N 49°44' W 124°55'0 0.0
2015-Aug-29 08:26N 49°44' W 124°55'0 0.0
2015-Aug-29 07:20N 49°44' W 124°55'6 2.1
2015-Aug-29 04:33N 49°47' W 124°47'10 8.7
2015-Aug-29 03:24N 49°50' W 124°33'1214.4
2015-Aug-29 02:33N 49°46' W 124°50'2 2.0
2015-Aug-29 01:30N 49°45' W 124°53'1313.4
2015-Aug-29 00:33N 49°49' W 124°35'1 0.5
2015-Aug-28 23:33N 49°50' W 124°35'1212.1
2015-Aug-28 22:32N 49°45' W 124°52'2 0.8
2015-Aug-28 20:08N 49°44' W 124°55'1013.8
2015-Aug-28 19:24N 49°48' W 124°41'6 6.3
2015-Aug-28 18:26N 49°50' W 124°32'1112.0
2015-Aug-28 17:32N 49°47' W 124°48'5 4.4
2015-Aug-28 16:22N 49°45' W 124°55'1113.7
2015-Aug-28 15:33N 49°48' W 124°39'4 3.8
2015-Aug-28 14:30N 49°50' W 124°33'1414.4
2015-Aug-28 13:33N 49°45' W 124°53'2 0.9
2015-Aug-28 11:29N 49°44' W 124°55'6 0.9
2015-Aug-28 04:33N 49°47' W 124°47'10 8.4
2015-Aug-28 03:24N 49°50' W 124°33'1314.7
2015-Aug-28 02:31N 49°46' W 124°51'0 0.2
2015-Aug-28 01:22N 49°46' W 124°51'1011.8
2015-Aug-28 00:33N 49°49' W 124°37'3 3.2
2015-Aug-27 23:33N 49°50' W 124°33'1414.3
2015-Aug-27 22:33N 49°45' W 124°53'2 0.7
2015-Aug-27 20:16N 49°44' W 124°55'1014.1
2015-Aug-27 19:32N 49°48' W 124°40'5 4.5
2015-Aug-27 18:19N 49°50' W 124°32'1114.8
2015-Aug-27 17:33N 49°46' W 124°49'4 4.3
2015-Aug-27 16:31N 49°44' W 124°55'1212.8
2015-Aug-27 15:33N 49°49' W 124°38'3 2.6
2015-Aug-27 14:33N 49°50' W 124°34'1514.6
2015-Aug-27 13:33N 49°45' W 124°55'0 0.0
2015-Aug-27 05:05N 49°44' W 124°55'712.4
2015-Aug-27 04:33N 49°47' W 124°46'9 8.0
2015-Aug-27 03:24N 49°50' W 124°33'1214.7
2015-Aug-27 02:33N 49°46' W 124°50'1 1.1
2015-Aug-27 01:27N 49°45' W 124°52'1112.0
2015-Aug-27 00:33N 49°49' W 124°37'3 2.4
2015-Aug-26 23:29N 49°50' W 124°33'1313.1
2015-Aug-26 22:32N 49°46' W 124°51'2 1.0
2015-Aug-26 20:04N 49°45' W 124°55'814.5
2015-Aug-26 19:32N 49°47' W 124°44'8 6.5
2015-Aug-26 18:18N 49°50' W 124°32'1013.6
2015-Aug-26 17:33N 49°46' W 124°47'6 5.0
2015-Aug-26 16:23N 49°44' W 124°55'  
Track history (hours):
 
Tides and Currents Weather Stations Pressure Air Temp Water Temp Dewpoint Dewpoint Depression Visibility Wind Speed Wind Dir Waves Ship Positions

Queen Of Burnaby

Last reported at 2015-Sep-05 15:34 UTC. Time now 2015-Sep-05 16:24 UTC.
Position N 49°48' W 124°40'.

Length 130 m; draft 4 m.

MMSI: 316001246.

Date/timePositionNaut miles runAvg speedWind from/ knotsBaromVisibWave heightAir tempDewpointWater temp
2015-Sep-05 15:34N 49°48' W 124°40'5 4.9
2015-Sep-05 14:33N 49°50' W 124°33'1413.5
2015-Sep-05 13:32N 49°45' W 124°53'2 1.8
2015-Sep-05 12:31N 49°44' W 124°55'0 0.0
2015-Sep-05 11:31N 49°44' W 124°55'0 0.0
2015-Sep-05 05:31N 49°44' W 124°55'7 7.8
2015-Sep-05 04:33N 49°47' W 124°45'9 7.9
2015-Sep-05 03:28N 49°50' W 124°32'1314.0
2015-Sep-05 02:33N 49°46' W 124°51'3 2.7
2015-Sep-05 01:33N 49°45' W 124°55'1212.2
2015-Sep-05 00:33N 49°49' W 124°37'3 3.1
2015-Sep-04 23:30N 49°50' W 124°32'1313.6
2015-Sep-04 22:33N 49°46' W 124°51'3 1.4
2015-Sep-04 20:15N 49°44' W 124°55'1013.0
2015-Sep-04 19:31N 49°48' W 124°42'6 5.5
2015-Sep-04 18:21N 49°50' W 124°33'1113.9
2015-Sep-04 17:33N 49°46' W 124°49'5 4.1
2015-Sep-04 16:26N 49°44' W 124°55'1112.9
2015-Sep-04 15:33N 49°48' W 124°39'3 3.1
2015-Sep-04 14:34N 49°50' W 124°35'1312.8
2015-Sep-04 13:34N 49°45' W 124°53'2 1.5
2015-Sep-04 12:26N 49°44' W 124°55'0 0.0
2015-Sep-04 10:17N 49°44' W 124°55'0 0.0
2015-Sep-04 09:05N 49°44' W 124°55'0 0.0
2015-Sep-04 08:29N 49°44' W 124°55'0 0.0
2015-Sep-04 05:23N 49°44' W 124°55'7 8.1
2015-Sep-04 04:33N 49°47' W 124°46'9 8.3
2015-Sep-04 03:27N 49°50' W 124°32'1214.1
2015-Sep-04 02:33N 49°46' W 124°50'2 2.2
2015-Sep-04 01:31N 49°45' W 124°54'1111.8
2015-Sep-04 00:34N 49°49' W 124°37'3 3.2
2015-Sep-03 23:33N 49°50' W 124°33'1413.8
2015-Sep-03 22:33N 49°45' W 124°52'2 1.0
2015-Sep-03 20:22N 49°44' W 124°55'7 8.7
2015-Sep-03 19:32N 49°47' W 124°45'9 7.4
2015-Sep-03 18:19N 49°50' W 124°32'1012.7
2015-Sep-03 17:33N 49°47' W 124°46'7 6.6
2015-Sep-03 16:33N 49°44' W 124°55'1211.9
2015-Sep-03 15:33N 49°49' W 124°38'3 3.1
2015-Sep-03 14:33N 49°50' W 124°34'1413.6
2015-Sep-03 13:32N 49°45' W 124°54'1 0.3
2015-Sep-03 09:32N 49°44' W 124°55'0 0.0
2015-Sep-03 08:14N 49°44' W 124°55'0 0.0
2015-Sep-03 07:29N 49°44' W 124°55'0 0.0
2015-Sep-03 06:23N 49°44' W 124°55'0 0.0
2015-Sep-03 05:14N 49°44' W 124°55'6 8.1
2015-Sep-03 04:33N 49°47' W 124°47'10 9.3
2015-Sep-03 03:26N 49°50' W 124°32'1214.0
2015-Sep-03 02:33N 49°46' W 124°50'3 3.5
2015-Sep-03 01:33N 49°44' W 124°55'1312.7
2015-Sep-03 00:33N 49°49' W 124°37'3 3.2
2015-Sep-02 23:33N 49°50' W 124°33'1313.0
2015-Sep-02 22:33N 49°45' W 124°51'0 0.0
2015-Sep-02 17:15N 49°46' W 124°52'3 3.8
2015-Sep-02 16:33N 49°44' W 124°55'1111.0
2015-Sep-02 15:33N 49°48' W 124°40'4 3.7
2015-Sep-02 14:33N 49°50' W 124°34'1413.8
2015-Sep-02 13:31N 49°45' W 124°55'1 0.5
2015-Sep-02 12:32N 49°44' W 124°55'0 0.0
2015-Sep-02 11:32N 49°44' W 124°55'0 0.0
2015-Sep-02 10:32N 49°44' W 124°55'0 0.0
2015-Sep-02 09:26N 49°44' W 124°55'0 0.0
2015-Sep-02 08:26N 49°44' W 124°55'0 0.0
2015-Sep-02 07:26N 49°44' W 124°55'0 0.0
2015-Sep-02 06:23N 49°44' W 124°55'0 0.0
2015-Sep-02 05:32N 49°44' W 124°55'6 6.1
2015-Sep-02 04:32N 49°48' W 124°48'10 9.1
2015-Sep-02 03:25N 49°50' W 124°32'1214.1
2015-Sep-02 02:33N 49°46' W 124°50'4 3.8
2015-Sep-02 01:33N 49°44' W 124°55'1212.3
2015-Sep-02 00:34N 49°49' W 124°38'4 3.5
2015-Sep-01 23:33N 49°50' W 124°33'1313.0
2015-Sep-01 22:33N 49°46' W 124°52'3 2.6
2015-Sep-01 21:29N 49°44' W 124°55'0 0.0
2015-Sep-01 20:32N 49°44' W 124°55'10 9.3
2015-Sep-01 19:30N 49°48' W 124°42'7 6.0
2015-Sep-01 18:23N 49°50' W 124°32'1011.8
2015-Sep-01 17:33N 49°47' W 124°46'6 5.9
2015-Sep-01 16:27N 49°44' W 124°55'1213.6
2015-Sep-01 15:33N 49°49' W 124°38'2 2.0
2015-Sep-01 14:34N 49°50' W 124°35'1413.8
2015-Sep-01 13:34N 49°45' W 124°55'0 0.3
2015-Sep-01 12:31N 49°44' W 124°55'0 0.0
2015-Sep-01 10:28N 49°44' W 124°55'0 0.0
2015-Sep-01 09:04N 49°44' W 124°55'0 0.0
2015-Sep-01 08:22N 49°44' W 124°55'0 0.0
2015-Sep-01 07:22N 49°44' W 124°55'0 0.0
2015-Sep-01 06:25N 49°44' W 124°55'0 0.0
2015-Sep-01 05:16N 49°44' W 124°55'6 8.0
2015-Sep-01 04:33N 49°47' W 124°48'1110.5
2015-Sep-01 03:33N 49°50' W 124°32'1212.5
2015-Sep-01 02:33N 49°46' W 124°50'4 3.5
2015-Sep-01 01:28N 49°44' W 124°55'1212.9
2015-Sep-01 00:33N 49°49' W 124°38'3 3.4
2015-Aug-31 23:33N 49°50' W 124°34'1313.4
2015-Aug-31 22:33N 49°45' W 124°53'2 0.8
2015-Aug-31 20:25N 49°44' W 124°55'8 8.7
2015-Aug-31 19:32N 49°47' W 124°44'9 8.3
2015-Aug-31 18:30N 49°50' W 124°32'1010.8
2015-Aug-31 17:33N 49°46' W 124°47'6 6.1
2015-Aug-31 16:34N 49°44' W 124°55'1110.4
2015-Aug-31 15:33N 49°48' W 124°40'5 5.4
2015-Aug-31 14:33N 49°50' W 124°33'1413.8
2015-Aug-31 13:33N 49°45' W 124°53'2 1.8
2015-Aug-31 12:28N 49°44' W 124°55'0 0.0
2015-Aug-31 10:22N 49°44' W 124°55'0 0.0
2015-Aug-31 07:10N 49°44' W 124°55'0 0.0
2015-Aug-31 06:28N 49°44' W 124°55'0 0.0
2015-Aug-31 05:22N 49°44' W 124°55'6 7.7
2015-Aug-31 04:32N 49°48' W 124°47'1010.1
2015-Aug-31 03:32N 49°50' W 124°32'1312.8
2015-Aug-31 02:33N 49°46' W 124°50'4 3.5
2015-Aug-31 01:33N 49°44' W 124°55'1212.2
2015-Aug-31 00:33N 49°49' W 124°38'4 3.6
2015-Aug-30 23:31N 49°50' W 124°33'1313.3
2015-Aug-30 22:31N 49°45' W 124°52'2 1.1
2015-Aug-30 20:15N 49°44' W 124°55'810.8
2015-Aug-30 19:32N 49°47' W 124°44'8 6.5
2015-Aug-30 18:17N 49°50' W 124°33'1013.6
2015-Aug-30 17:33N 49°47' W 124°47'6 5.9
2015-Aug-30 16:32N 49°44' W 124°55'1210.7
2015-Aug-30 15:26N 49°49' W 124°38'4 4.5
2015-Aug-30 14:31N 49°50' W 124°33'1414.3
2015-Aug-30 13:33N 49°45' W 124°53'3 0.3
2015-Aug-30 04:34N 49°46' W 124°48'11 8.4
2015-Aug-30 03:13N 49°50' W 124°32'912.8
2015-Aug-30 02:33N 49°47' W 124°45'8 3.5
2015-Aug-30 00:26N 49°44' W 124°55'0 0.0
2015-Aug-29 23:32N 49°44' W 124°55'0 0.0
2015-Aug-29 20:26N 49°44' W 124°55'8 9.4
2015-Aug-29 19:32N 49°47' W 124°43'7 5.8
2015-Aug-29 18:17N 49°50' W 124°33'1013.3
2015-Aug-29 17:31N 49°46' W 124°48'5 5.5
2015-Aug-29 16:33N 49°44' W 124°55'1110.3
2015-Aug-29 15:31N 49°48' W 124°40'5 5.1
2015-Aug-29 14:33N 49°50' W 124°33'1413.9
2015-Aug-29 13:33N 49°45' W 124°53'2 1.2
2015-Aug-29 12:08N 49°44' W 124°55'0 0.0
2015-Aug-29 11:11N 49°44' W 124°55'0 0.0
2015-Aug-29 10:32N 49°44' W 124°55'0 0.0
2015-Aug-29 09:23N 49°44' W 124°55'0 0.0
2015-Aug-29 08:26N 49°44' W 124°55'0 0.0
2015-Aug-29 07:20N 49°44' W 124°55'6 2.1
2015-Aug-29 04:33N 49°47' W 124°47'10 8.7
2015-Aug-29 03:24N 49°50' W 124°33'1214.4
2015-Aug-29 02:33N 49°46' W 124°50'2 2.0
2015-Aug-29 01:30N 49°45' W 124°53'1313.4
2015-Aug-29 00:33N 49°49' W 124°35'1 0.5
2015-Aug-28 23:33N 49°50' W 124°35'1212.1
2015-Aug-28 22:32N 49°45' W 124°52'2 0.8
2015-Aug-28 20:08N 49°44' W 124°55'1013.8
2015-Aug-28 19:24N 49°48' W 124°41'6 6.3
2015-Aug-28 18:26N 49°50' W 124°32'1112.0
2015-Aug-28 17:32N 49°47' W 124°48'5 4.4
2015-Aug-28 16:22N 49°45' W 124°55'1113.7
2015-Aug-28 15:33N 49°48' W 124°39'4 3.8
2015-Aug-28 14:30N 49°50' W 124°33'1414.4
2015-Aug-28 13:33N 49°45' W 124°53'2 0.9
2015-Aug-28 11:29N 49°44' W 124°55'6 0.9
2015-Aug-28 04:33N 49°47' W 124°47'10 8.4
2015-Aug-28 03:24N 49°50' W 124°33'1314.7
2015-Aug-28 02:31N 49°46' W 124°51'0 0.2
2015-Aug-28 01:22N 49°46' W 124°51'1011.8
2015-Aug-28 00:33N 49°49' W 124°37'3 3.2
2015-Aug-27 23:33N 49°50' W 124°33'1414.3
2015-Aug-27 22:33N 49°45' W 124°53'2 0.7
2015-Aug-27 20:16N 49°44' W 124°55'1014.1
2015-Aug-27 19:32N 49°48' W 124°40'5 4.5
2015-Aug-27 18:19N 49°50' W 124°32'1114.8
2015-Aug-27 17:33N 49°46' W 124°49'4 4.3
2015-Aug-27 16:31N 49°44' W 124°55'1212.8
2015-Aug-27 15:33N 49°49' W 124°38'3 2.6
2015-Aug-27 14:33N 49°50' W 124°34'1514.6
2015-Aug-27 13:33N 49°45' W 124°55'0 0.0
2015-Aug-27 05:05N 49°44' W 124°55'712.4
2015-Aug-27 04:33N 49°47' W 124°46'9 8.0
2015-Aug-27 03:24N 49°50' W 124°33'1214.7
2015-Aug-27 02:33N 49°46' W 124°50'1 1.1
2015-Aug-27 01:27N 49°45' W 124°52'1112.0
2015-Aug-27 00:33N 49°49' W 124°37'3 2.4
2015-Aug-26 23:29N 49°50' W 124°33'1313.1
2015-Aug-26 22:32N 49°46' W 124°51'2 1.0
2015-Aug-26 20:04N 49°45' W 124°55'814.5
2015-Aug-26 19:32N 49°47' W 124°44'8 6.5
2015-Aug-26 18:18N 49°50' W 124°32'1013.6
2015-Aug-26 17:33N 49°46' W 124°47'6 5.0
2015-Aug-26 16:23N 49°44' W 124°55'  

Dump ship's entire track history